createdAt,value
2023-05-19T14:56:48.491Z,101559.60
2023-05-19T14:59:17.087Z,101566.05
2023-05-19T15:01:46.037Z,101572.40
2023-05-19T15:04:14.624Z,101580.35
2023-05-19T15:06:43.085Z,101584.98
2023-05-19T15:09:14.851Z,101587.80
2023-05-19T15:11:43.383Z,101589.19
2023-05-19T15:14:11.810Z,101593.20
2023-05-19T15:16:41.255Z,101592.23
2023-05-19T15:19:09.559Z,101590.42
2023-05-19T15:21:38.098Z,101594.11
2023-05-19T15:24:06.987Z,101593.89
2023-05-19T15:26:38.054Z,101592.64
2023-05-19T15:29:06.564Z,101591.80
2023-05-19T15:31:36.602Z,101596.48
2023-05-19T15:34:06.733Z,101592.58
2023-05-19T15:36:36.433Z,101589.12
2023-05-19T15:39:05.218Z,101592.52
2023-05-19T15:41:33.599Z,101600.00
2023-05-19T15:44:02.924Z,101604.78
2023-05-19T15:46:31.257Z,101609.83
2023-05-19T15:49:00.154Z,101612.96
2023-05-19T15:51:28.779Z,101608.33
2023-05-19T15:53:57.152Z,101615.77
2023-05-19T15:56:26.156Z,101626.10
2023-05-19T15:58:54.554Z,101630.88
2023-05-19T16:01:23.064Z,101639.41
2023-05-19T16:03:51.677Z,101646.16
2023-05-19T16:06:20.919Z,101643.20
2023-05-19T16:08:49.389Z,101629.42
2023-05-19T16:11:18.439Z,101625.36
2023-05-19T16:13:47.336Z,101614.17
2023-05-19T16:16:16.071Z,101610.27
2023-05-19T16:18:49.506Z,101605.57
2023-05-19T16:21:22.009Z,101598.75
2023-05-19T16:23:50.393Z,101597.83
2023-05-19T16:26:18.786Z,101589.91
2023-05-19T16:28:47.179Z,101586.81
2023-05-19T16:31:15.699Z,101587.58
2023-05-19T16:33:44.182Z,101592.89
2023-05-19T16:36:12.645Z,101603.67
2023-05-19T16:38:41.053Z,101616.10
2023-05-19T16:41:12.186Z,101613.94
2023-05-19T16:43:40.925Z,101608.96
2023-05-19T16:46:12.415Z,101600.82
2023-05-19T16:48:41.005Z,101595.83
2023-05-19T16:51:09.280Z,101579.35
2023-05-19T16:53:37.769Z,101576.55
2023-05-19T16:56:08.242Z,101591.32
2023-05-19T16:58:36.531Z,101593.91
